Latest Weather Observations for Scottsdale

IDT60801

Issued at 4:35 pm EST Wednesday 20 August 2014 (issued every 30 minutes, with the page automatically refreshed every 10 minutes)

About weather observations | Map of weather stations | Latest weather observations for TAS | Other Formats
Station Details ID: 091219 Name: SCOTTSDALE (WEST MINSTONE ROAD) Lat: -41.17 Lon: 147.49 Height: 197.5 m
Data from the previous 72 hours. | See also: Recent months at Scottsdale
Date/Time
EST
Temp
°C
App
Temp
°C
Dew
Point
Rel
Hum
%
Delta-T
°C
Wind Press
QNH
hPa
Press
MSL
hPa
Rain
since 9 am
mm
Dir
 
Spd
km/h
Gust
km/h
Spd
kts
Gust
kts
20/04:30pm 11.6 8.1 3.5 57 3.6 NW 11 15 6 8 1026.1 - 0.0
20/04:00pm 12.4 9.1 4.3 57 3.7 NNW 11 15 6 8 1025.9 - 0.0
20/03:30pm 12.3 9.0 4.4 58 3.6 NW 11 15 6 8 1025.8 - 0.0
20/03:00pm 12.6 9.6 4.3 57 3.8 N 9 15 5 8 1025.4 1025.9 0.0
20/02:30pm 13.0 9.8 3.1 51 4.4 N 9 13 5 7 1025.4 - 0.0
20/02:00pm 12.4 9.0 4.0 56 3.8 N 11 19 6 10 1025.2 - 0.0
20/01:30pm 12.7 9.2 3.6 54 4.1 NNW 11 17 6 9 1025.2 - 0.0
20/01:00pm 13.6 11.3 2.5 47 4.9 N 4 9 2 5 1025.3 - 0.0
20/12:30pm 13.1 9.9 3.3 51 4.4 NNW 9 13 5 7 1025.4 - 0.0
20/12:00pm 13.0 10.4 3.4 52 4.3 NNW 6 11 3 6 1025.5 1026.0 0.0
20/11:30am 12.2 9.0 2.9 53 4.1 N 9 15 5 8 1025.9 - 0.0
20/11:00am 12.1 9.6 3.9 57 3.7 NE 6 11 3 6 1026.0 - 0.0
20/10:30am 11.3 8.6 3.9 60 3.3 NW 7 13 4 7 1025.8 - 0.0
20/10:00am 10.5 7.8 3.7 63 3.0 N 7 13 4 7 1025.7 - 0.0
20/09:30am 9.5 6.7 3.3 65 2.7 S 7 9 4 5 1025.6 - 0.0
20/09:00am 8.5 5.6 4.7 77 1.7 SSE 9 11 5 6 1025.3 1025.8 0.0
20/08:30am 7.1 3.7 3.8 79 1.4 SSE 11 13 6 7 1025.1 - 0.0
20/08:00am 5.5 1.5 3.1 84 1.0 SSE 13 15 7 8 1024.7 - 0.0
20/07:30am 4.5 1.5 2.0 84 1.0 S 7 11 4 6 1024.3 - 0.0
20/07:00am 4.3 1.3 2.3 87 0.8 SSE 7 11 4 6 1024.0 - 0.0
20/06:30am 3.9 1.0 1.6 85 0.9 E 6 7 3 4 1023.7 - 0.0
20/06:00am 4.4 0.6 1.6 82 1.1 SSE 11 13 6 7 1023.5 1024.0 0.0
20/05:30am 4.2 -0.5 1.1 80 1.2 SSE 15 17 8 9 1023.4 - 0.0
20/05:00am 3.6 -1.1 1.0 83 1.0 SSE 15 17 8 9 1023.1 - 0.0
20/04:30am 3.8 -0.9 1.2 83 1.0 SSE 15 15 8 8 1022.9 - 0.0
20/04:00am 3.7 -1.0 1.1 83 1.0 SSE 15 17 8 9 1022.9 - 0.0
20/03:30am 3.3 -1.0 1.2 86 0.8 SSE 13 15 7 8 1022.9 - 0.0
20/03:00am 3.9 -0.4 1.3 83 1.0 SSE 13 17 7 9 1022.8 1023.4 0.0
20/02:30am 3.5 -0.3 1.5 87 0.8 SSE 11 13 6 7 1023.0 - 0.0
20/02:00am 4.3 0.5 1.8 84 1.0 SSE 11 13 6 7 1023.1 - 0.0
20/01:30am 4.0 0.7 2.3 89 0.7 SE 9 11 5 6 1023.1 - 0.0
20/01:00am 3.8 0.1 2.3 90 0.6 SE 11 13 6 7 1023.1 - 0.0
20/12:30am 3.5 -0.2 2.2 91 0.5 SSE 11 15 6 8 1023.1 - 0.0
20/12:00am 4.0 -0.1 2.3 89 0.7 SE 13 15 7 8 1023.0 1023.6 0.0
 
Date/Time
EST
Temp
°C
App
Temp
°C
Dew
Point
Rel
Hum
%
Delta-T
°C
Wind Press
QNH
hPa
Press
MSL
hPa
Rain
since 9 am
mm
Dir
 
Spd
km/h
Gust
km/h
Spd
kts
Gust
kts
19/11:30pm 4.9 0.9 2.7 86 0.9 SSE 13 15 7 8 1022.9 - 0.0
19/11:00pm 4.5 0.8 2.5 87 0.8 SSE 11 13 6 7 1023.0 - 0.0
19/10:30pm 4.6 0.9 2.6 87 0.8 SSE 11 13 6 7 1023.2 - 0.0
19/10:00pm 4.7 1.0 2.5 86 0.9 SSE 11 13 6 7 1023.2 - 0.0
19/09:30pm 5.0 1.0 3.1 87 0.8 SSE 13 15 7 8 1023.1 - 0.0
19/09:00pm 5.4 1.4 3.0 84 1.0 SSE 13 15 7 8 1023.0 1023.6 0.0
19/08:30pm 4.8 0.8 3.1 89 0.7 SSE 13 15 7 8 1022.9 - 0.0
19/08:00pm 4.5 1.7 3.0 90 0.6 SSE 7 11 4 6 1022.9 - 0.0
19/07:30pm 4.9 1.7 3.2 89 0.7 SSE 9 11 5 6 1022.7 - 0.0
19/07:00pm 5.5 2.0 3.4 86 0.9 E 11 13 6 7 1022.4 - 0.0
19/06:30pm 5.5 2.0 3.4 86 0.9 E 11 15 6 8 1022.0 - 0.0
19/06:00pm 6.0 2.5 3.4 83 1.1 NE 11 13 6 7 1021.6 1022.1 0.0
19/05:30pm 8.2 4.8 4.1 75 1.8 NNW 11 15 6 8 1021.3 - 0.0
19/05:00pm 9.3 6.0 4.6 72 2.1 N 11 15 6 8 1021.1 - 0.0
19/04:30pm 11.8 7.5 0.9 47 4.6 NW 13 17 7 9 1021.0 - 0.0
19/04:00pm 12.5 8.6 1.0 45 4.9 NW 11 17 6 9 1021.0 - 0.0
19/03:30pm 12.7 8.8 1.3 45 4.9 WNW 11 13 6 7 1021.0 - 0.0
19/03:00pm 12.8 8.7 2.0 48 4.7 NW 13 17 7 9 1021.0 1021.5 0.0
19/02:30pm 12.7 8.8 0.9 44 5.0 WNW 11 19 6 10 1021.0 - 0.0
19/02:00pm 12.3 8.0 1.3 47 4.7 NNW 13 20 7 11 1021.0 - 0.0
19/01:30pm 12.4 8.9 1.4 47 4.7 SW 9 13 5 7 1021.2 - 0.0
19/01:00pm 11.8 8.3 1.5 49 4.4 W 9 13 5 7 1021.5 - 0.0
19/12:30pm 11.4 8.4 2.1 53 4.0 WSW 7 15 4 8 1022.1 - 0.0
19/12:00pm 11.1 8.1 2.3 54 3.8 NW 7 11 4 6 1022.5 1023.1 0.0
19/11:30am 10.7 7.7 2.0 55 3.7 N 7 20 4 11 1023.0 - 0.0
19/11:00am 10.0 6.9 1.1 54 3.7 NNW 7 9 4 5 1023.4 - 0.0
19/10:30am 9.1 5.9 -0.2 52 3.7 WSW 6 9 3 5 1023.4 - 0.0
19/10:00am 9.5 7.7 1.0 55 3.5 CALM 0 0 0 0 1023.5 - 0.0
19/09:30am 8.0 5.0 0.5 59 3.0 SSW 6 7 3 4 1023.7 - 0.0
19/09:00am 7.3 3.9 2.0 69 2.2 S 9 11 5 6 1023.7 1024.2 0.0
19/08:30am 5.7 2.3 2.0 77 1.5 SSE 9 11 5 6 1023.7 - 0.0
19/08:00am 3.9 -0.8 0.8 80 1.2 SSE 15 17 8 9 1023.6 - 0.0
19/07:30am 2.9 -1.1 0.2 82 1.0 S 11 13 6 7 1023.4 - 0.0
19/07:00am 2.6 -1.2 -0.4 80 1.1 S 9 13 5 7 1023.0 - 0.0
19/06:30am 1.6 -2.5 -0.3 87 0.7 SSE 11 11 6 6 1022.9 - 0.0
19/06:00am 2.5 -1.9 0.4 86 0.8 SSE 13 15 7 8 1022.8 1023.4 0.0
19/05:30am 2.3 -1.4 0.2 86 0.8 S 9 13 5 7 1022.5 - 0.0
19/05:00am 2.5 -1.9 0.4 86 0.8 S 13 13 7 7 1022.3 - 0.0
19/04:30am 3.2 -1.6 0.3 81 1.1 SSE 15 17 8 9 1022.3 - 0.0
19/04:00am 3.1 -1.7 0.5 83 1.0 SSE 15 17 8 9 1022.4 - 0.0
19/03:30am 2.4 -1.6 0.8 89 0.6 S 11 15 6 8 1022.5 - 0.0
19/03:00am 2.7 -0.8 1.1 89 0.6 SSE 9 13 5 7 1022.5 1023.1 0.0
19/02:30am 3.2 -1.4 1.4 88 0.7 SSE 15 17 8 9 1022.6 - 0.0
19/02:00am 2.9 -0.9 1.6 91 0.5 SSE 11 13 6 7 1022.8 - 0.0
19/01:30am 3.3 -0.5 1.8 90 0.6 SSE 11 15 6 8 1023.0 - 0.0
19/01:00am 2.8 -0.3 1.5 91 0.5 SSE 7 11 4 6 1022.9 - 0.0
19/12:30am 3.9 0.2 2.2 89 0.7 SSE 11 13 6 7 1022.8 - 0.0
19/12:00am 3.6 -0.1 2.4 92 0.5 SSE 11 15 6 8 1022.9 1023.5 0.0
 
Date/Time
EST
Temp
°C
App
Temp
°C
Dew
Point
Rel
Hum
%
Delta-T
°C
Wind Press
QNH
hPa
Press
MSL
hPa
Rain
since 9 am
mm
Dir
 
Spd
km/h
Gust
km/h
Spd
kts
Gust
kts
18/11:30pm 3.9 0.2 2.4 90 0.6 SE 11 13 6 7 1022.9 - 0.0
18/11:00pm 4.7 1.0 2.5 86 0.9 SE 11 13 6 7 1022.9 - 0.0
18/10:30pm 5.1 0.7 2.9 86 0.9 SE 15 15 8 8 1023.0 - 0.0
18/10:00pm 5.6 0.9 3.2 84 1.0 SE 17 17 9 9 1023.0 - 0.0
18/09:30pm 5.0 1.0 3.1 87 0.8 SE 13 15 7 8 1023.0 - 0.0
18/09:00pm 4.9 1.0 3.5 91 0.6 SSE 13 15 7 8 1022.9 1023.5 0.0
18/08:30pm 5.6 1.6 3.0 83 1.1 SE 13 15 7 8 1022.7 - 0.0
18/08:00pm 6.2 2.2 3.1 80 1.3 SE 13 17 7 9 1022.5 - 0.0
18/07:30pm 5.7 2.5 2.8 81 1.2 SE 9 11 5 6 1022.4 - 0.0
18/07:00pm 6.9 3.0 3.4 78 1.5 ENE 13 15 7 8 1022.2 - 0.0
18/06:30pm 7.8 3.1 3.4 74 1.9 ENE 17 19 9 10 1021.9 - 0.0
18/06:00pm 8.5 4.7 3.9 73 2.0 ENE 13 17 7 9 1021.6 1022.1 0.0
18/05:30pm 9.2 6.5 3.7 68 2.4 NW 7 11 4 6 1021.2 - 0.0
18/05:00pm 11.3 8.7 4.2 61 3.2 WNW 7 13 4 7 1021.0 - 0.0
18/04:30pm 12.5 10.8 3.9 56 3.9 E 2 9 1 5 1020.8 - 0.0
18/04:00pm 12.6 9.4 2.9 51 4.3 N 9 11 5 6 1020.6 - 0.0
18/03:30pm 13.1 10.4 2.7 49 4.6 NNE 6 9 3 5 1020.5 - 0.0
18/03:00pm 13.1 11.1 2.2 47 4.8 ENE 2 9 1 5 1020.2 1020.7 0.0
18/02:30pm 13.4 10.6 2.3 47 4.9 ENE 6 11 3 6 1020.3 - 0.0
18/02:00pm 13.6 10.8 2.3 46 5.0 NNW 6 9 3 5 1020.4 - 0.0
18/01:30pm 12.9 9.6 2.5 49 4.6 E 9 13 5 7 1020.5 - 0.0
18/01:00pm 12.7 9.9 1.9 47 4.7 NE 6 9 3 5 1020.8 - 0.0
18/12:30pm 11.8 8.1 2.1 51 4.2 SE 11 19 6 10 1021.1 - 0.0
18/12:00pm 11.5 6.9 1.7 51 4.2 ESE 15 20 8 11 1021.5 1022.0 0.0
18/11:30am 11.4 6.1 2.1 53 4.0 E 19 22 10 12 1021.8 - 0.0
18/11:00am 11.0 5.8 2.2 54 3.8 ESE 19 26 10 14 1022.1 - 0.0
18/10:30am 10.5 7.6 2.4 57 3.5 S 7 11 4 6 1022.2 - 0.0
18/10:00am 10.7 7.9 3.2 60 3.3 SSE 7 15 4 8 1022.1 - 0.0
18/09:30am 9.3 6.6 2.8 64 2.8 SSW 6 9 3 5 1022.2 - 0.0
18/09:00am 8.6 5.7 2.7 66 2.5 SSW 7 11 4 6 1022.1 1022.7 0.0
18/08:30am 7.6 4.6 2.3 69 2.2 SSW 7 9 4 5 1022.2 - 0.0
18/08:00am 6.2 3.3 2.8 79 1.4 S 7 9 4 5 1022.1 - 0.0
18/07:30am 4.9 1.5 1.6 79 1.3 S 9 11 5 6 1021.9 - 0.0
18/07:00am 4.1 0.3 1.6 84 1.0 S 11 15 6 8 1021.6 - 0.0
18/06:30am 5.3 2.2 1.3 75 1.6 SSW 7 11 4 6 1021.3 - 0.0
18/06:00am 5.7 2.2 1.2 73 1.8 SSE 9 13 5 7 1021.2 1021.7 0.0
18/05:30am 4.6 1.6 1.9 83 1.1 S 7 9 4 5 1020.9 - 0.0
18/05:00am 5.0 1.6 1.8 80 1.3 S 9 11 5 6 1020.6 - 0.0
18/04:30am 4.0 1.0 1.7 85 0.9 S 7 11 4 6 1020.4 - 0.0
18/04:00am 5.4 1.6 1.7 77 1.5 S 11 13 6 7 1020.4 - 0.0
18/03:30am 4.1 0.3 1.8 85 0.9 S 11 17 6 9 1020.3 - 0.0
18/03:00am 4.7 1.3 1.7 81 1.2 S 9 13 5 7 1020.3 1020.8 0.0
18/02:30am 4.6 1.2 1.6 81 1.2 S 9 19 5 10 1020.4 - 0.0
18/02:00am 4.5 1.2 2.3 86 0.9 S 9 11 5 6 1020.6 - 0.0
18/01:30am 4.5 0.8 2.5 87 0.8 S 11 15 6 8 1020.6 - 0.0
18/01:00am 5.2 1.2 3.0 86 0.9 SSE 13 15 7 8 1020.6 - 0.0
18/12:30am 5.5 2.1 4.1 91 0.6 SSE 11 15 6 8 1020.8 - 0.0
18/12:00am 5.3 2.9 4.4 94 0.4 SSE 6 9 3 5 1020.9 1021.4 0.0
 
Date/Time
EST
Temp
°C
App
Temp
°C
Dew
Point
Rel
Hum
%
Delta-T
°C
Wind Press
QNH
hPa
Press
MSL
hPa
Rain
since 9 am
mm
Dir
 
Spd
km/h
Gust
km/h
Spd
kts
Gust
kts
17/11:30pm 6.4 3.6 5.0 91 0.6 SSE 9 11 5 6 1020.8 - 0.0
17/11:00pm 7.5 5.3 6.0 90 0.7 SSE 7 9 4 5 1020.8 - 0.0
17/10:30pm 7.8 5.2 6.1 89 0.8 ESE 9 11 5 6 1020.6 - 0.0
17/10:00pm 7.6 4.9 5.6 87 0.9 SE 9 9 5 5 1020.5 - 0.0
17/09:30pm 7.1 4.4 5.5 89 0.7 ESE 9 9 5 5 1020.4 - 0.0
17/09:00pm 7.6 5.4 6.1 90 0.7 SSE 7 7 4 4 1020.4 1020.9 0.0
17/08:30pm 8.7 8.0 7.0 89 0.8 CALM 0 0 0 0 1020.5 - 0.0
17/08:00pm 9.2 7.3 6.6 84 1.2 NNW 6 7 3 4 1020.3 - 0.0
17/07:30pm 9.4 7.0 6.9 84 1.2 N 9 11 5 6 1020.0 - 0.0
17/07:00pm 9.4 7.4 7.1 85 1.1 NNE 7 9 4 5 1019.7 - 0.0
17/06:30pm 9.7 7.7 7.0 83 1.3 N 7 11 4 6 1019.6 - 0.0
17/06:00pm 9.9 7.4 6.7 80 1.5 NE 9 13 5 7 1019.4 1019.9 0.0
17/05:30pm 10.3 7.4 6.3 76 1.9 N 11 15 6 8 1019.1 - 0.0
17/05:00pm 11.2 7.5 6.1 71 2.4 N 15 19 8 10 1018.7 - 0.0

Other Formats:

Comma delimited format used in spreadsheet applications
http://www.bom.gov.au/fwo/IDT60801/IDT60801.94972.axf

JavaScript Object Notation format (JSON) in row-major order
http://www.bom.gov.au/fwo/IDT60801/IDT60801.94972.json